createdAt,value
2018-03-28T00:00:45.593Z,41.57
2018-03-28T00:03:11.689Z,41.37
2018-03-28T00:05:37.722Z,43.73
2018-03-28T00:08:03.762Z,48.37
2018-03-28T00:10:29.774Z,40.30
2018-03-28T00:12:55.814Z,37.47
2018-03-28T00:15:22.296Z,37.60
2018-03-28T00:17:48.322Z,37.10
2018-03-28T00:20:14.330Z,34.17
2018-03-28T00:22:40.742Z,35.10
2018-03-28T00:25:06.766Z,36.77
2018-03-28T00:27:32.882Z,36.67
2018-03-28T00:29:58.906Z,35.73
2018-03-28T00:32:24.899Z,33.43
2018-03-28T00:34:51.647Z,38.43
2018-03-28T00:37:17.696Z,36.43
2018-03-28T00:39:43.782Z,35.27
2018-03-28T00:42:09.814Z,38.77
2018-03-28T00:44:36.562Z,35.27
2018-03-28T00:47:02.619Z,31.03
2018-03-28T00:49:28.638Z,36.50
2018-03-28T00:51:54.701Z,37.23
2018-03-28T00:54:20.729Z,37.70
2018-03-28T00:56:46.738Z,36.10
2018-03-28T00:59:12.783Z,33.47
2018-03-28T01:01:39.025Z,35.23
2018-03-28T01:04:05.068Z,33.67
2018-03-28T01:06:31.242Z,35.33
2018-03-28T01:08:57.257Z,35.70
2018-03-28T01:11:23.291Z,36.83
2018-03-28T01:13:49.278Z,35.30
2018-03-28T01:16:15.279Z,35.03
2018-03-28T01:18:41.937Z,36.43
2018-03-28T01:21:07.953Z,35.77
2018-03-28T01:23:33.967Z,31.43
2018-03-28T01:26:00.009Z,30.33
2018-03-28T01:28:26.445Z,34.70
2018-03-28T01:30:52.574Z,37.13
2018-03-28T01:33:18.635Z,39.00
2018-03-28T01:35:44.766Z,40.60
2018-03-28T01:38:10.794Z,34.50
2018-03-28T01:40:36.810Z,31.63
2018-03-28T01:43:02.834Z,35.27
2018-03-28T01:45:28.937Z,38.20
2018-03-28T01:47:54.945Z,34.17
2018-03-28T01:50:20.970Z,39.03
2018-03-28T01:52:46.979Z,34.63
2018-03-28T01:55:12.983Z,35.00
2018-03-28T01:57:39.786Z,37.90
2018-03-28T02:00:05.809Z,39.00
2018-03-28T02:02:31.842Z,36.77
2018-03-28T02:04:57.842Z,35.73
2018-03-28T02:07:23.874Z,39.43
2018-03-28T02:09:49.922Z,37.83
2018-03-28T02:12:15.950Z,33.43
2018-03-28T02:14:41.975Z,36.47
2018-03-28T02:17:07.978Z,38.77
2018-03-28T02:19:33.982Z,39.13
2018-03-28T02:22:00.207Z,35.93
2018-03-28T02:24:26.259Z,31.47
2018-03-28T02:26:52.294Z,37.40
2018-03-28T02:29:18.315Z,35.30
2018-03-28T02:31:44.371Z,39.90
2018-03-28T02:34:11.159Z,38.87
2018-03-28T02:36:37.191Z,37.20
2018-03-28T02:39:03.223Z,33.47
2018-03-28T02:41:29.259Z,35.67
2018-03-28T02:43:55.270Z,36.10
2018-03-28T02:46:21.334Z,34.70
2018-03-28T02:48:48.295Z,39.87
2018-03-28T02:51:14.299Z,36.40
2018-03-28T02:53:40.307Z,32.47
2018-03-28T02:56:06.351Z,37.03
2018-03-28T02:58:32.356Z,34.60
2018-03-28T03:00:58.390Z,40.00
2018-03-28T03:03:24.392Z,36.30
2018-03-28T03:05:50.443Z,35.40
2018-03-28T03:08:16.481Z,38.47
2018-03-28T03:10:42.557Z,37.77
2018-03-28T03:13:08.592Z,40.67
2018-03-28T03:15:34.595Z,33.73
2018-03-28T03:18:00.634Z,37.27
2018-03-28T03:20:26.642Z,31.13
2018-03-28T03:22:52.730Z,44.67
2018-03-28T03:25:18.789Z,36.30
2018-03-28T03:27:44.829Z,36.60
2018-03-28T03:30:10.893Z,39.67
2018-03-28T03:32:36.914Z,42.47
2018-03-28T03:35:17.878Z,33.87
2018-03-28T03:37:43.938Z,42.23
2018-03-28T03:40:09.942Z,39.97
2018-03-28T03:42:35.966Z,40.07
2018-03-28T03:45:02.047Z,42.47
2018-03-28T03:47:28.101Z,35.83
2018-03-28T03:49:54.850Z,40.97
2018-03-28T03:52:20.893Z,39.00
2018-03-28T03:54:46.900Z,37.37
2018-03-28T03:57:12.914Z,39.80
2018-03-28T03:59:38.939Z,43.57
2018-03-28T04:02:05.723Z,40.03
2018-03-28T04:04:31.751Z,32.67
2018-03-28T04:06:57.768Z,40.23
2018-03-28T04:09:24.023Z,40.67
2018-03-28T04:11:50.037Z,39.27
2018-03-28T04:14:22.868Z,38.37
2018-03-28T04:16:48.883Z,41.40
2018-03-28T04:19:14.918Z,34.13
2018-03-28T04:21:40.923Z,31.97
2018-03-28T04:24:06.954Z,35.47
2018-03-28T04:26:33.002Z,41.53
2018-03-28T04:28:59.013Z,33.43
2018-03-28T04:31:25.463Z,45.23
2018-03-28T04:33:51.458Z,43.57
2018-03-28T04:36:17.474Z,42.67
2018-03-28T04:38:43.526Z,40.03
2018-03-28T04:41:09.527Z,46.67
2018-03-28T04:43:35.586Z,44.53
2018-03-28T04:46:01.624Z,45.57
2018-03-28T04:48:27.638Z,41.93
2018-03-28T04:50:53.810Z,39.50
2018-03-28T04:53:19.814Z,45.67
2018-03-28T04:55:45.924Z,44.27
2018-03-28T04:58:11.910Z,44.90
2018-03-28T05:00:37.910Z,42.13
2018-03-28T05:03:03.970Z,43.33
2018-03-28T05:05:29.998Z,46.63
2018-03-28T05:07:56.038Z,44.40
2018-03-28T05:10:22.047Z,42.27
2018-03-28T05:12:48.066Z,44.87
2018-03-28T05:15:14.115Z,45.80
2018-03-28T05:17:40.147Z,46.50
2018-03-28T05:20:06.227Z,46.23
2018-03-28T05:22:32.321Z,47.00
2018-03-28T05:24:58.306Z,44.17
2018-03-28T05:27:24.357Z,46.30
2018-03-28T05:29:50.366Z,48.40
2018-03-28T05:32:16.759Z,46.57
2018-03-28T05:34:43.039Z,41.10
2018-03-28T05:37:09.099Z,44.40
2018-03-28T05:39:35.277Z,50.57
2018-03-28T05:42:01.294Z,38.13
2018-03-28T05:44:27.281Z,41.10
2018-03-28T05:46:53.750Z,45.93
2018-03-28T05:49:20.184Z,45.90
2018-03-28T05:51:46.239Z,45.13
2018-03-28T05:54:12.313Z,44.07
2018-03-28T05:56:38.354Z,42.83
2018-03-28T05:59:04.433Z,43.57
2018-03-28T06:01:31.195Z,43.77
2018-03-28T06:03:57.650Z,43.93
2018-03-28T06:06:23.675Z,43.03
2018-03-28T06:08:49.690Z,43.17
2018-03-28T06:11:16.318Z,45.03
2018-03-28T06:13:42.378Z,45.40
2018-03-28T06:16:08.408Z,45.90
2018-03-28T06:18:35.021Z,45.87
2018-03-28T06:21:01.646Z,46.80
2018-03-28T06:23:27.666Z,41.50
2018-03-28T06:25:53.817Z,45.47
2018-03-28T06:28:19.845Z,44.60
2018-03-28T06:30:45.862Z,43.50
2018-03-28T06:33:11.872Z,50.43
2018-03-28T06:35:37.874Z,51.57
2018-03-28T06:38:03.941Z,52.67
2018-03-28T06:40:30.651Z,54.70
2018-03-28T06:42:56.715Z,50.63
2018-03-28T06:45:23.115Z,53.93
2018-03-28T06:47:49.118Z,58.73
2018-03-28T06:50:15.186Z,48.13
2018-03-28T06:52:41.791Z,54.00
2018-03-28T06:55:07.823Z,51.53
2018-03-28T06:57:33.845Z,55.60
2018-03-28T06:59:59.859Z,56.23
2018-03-28T07:02:25.918Z,52.87
2018-03-28T07:04:51.946Z,52.53
2018-03-28T07:07:17.976Z,53.30
2018-03-28T07:09:44.630Z,55.83
2018-03-28T07:12:10.646Z,55.30
2018-03-28T07:14:36.663Z,52.47
2018-03-28T07:17:02.754Z,50.73
2018-03-28T07:19:28.793Z,52.80
2018-03-28T07:21:54.824Z,50.77
2018-03-28T07:24:20.853Z,49.17
2018-03-28T07:26:46.888Z,47.50
2018-03-28T07:29:12.950Z,47.57
2018-03-28T07:31:38.998Z,43.80
2018-03-28T07:34:05.047Z,46.20
2018-03-28T07:36:31.052Z,43.60
2018-03-28T07:38:57.079Z,42.67
2018-03-28T07:41:23.103Z,39.30
2018-03-28T07:43:49.212Z,35.33
2018-03-28T07:46:15.254Z,38.77
2018-03-28T07:48:41.282Z,35.07
2018-03-28T07:51:07.291Z,36.33
2018-03-28T07:53:33.531Z,34.83
2018-03-28T07:55:59.591Z,30.60
2018-03-28T07:58:25.606Z,35.50
2018-03-28T08:00:51.620Z,36.10
2018-03-28T08:03:17.655Z,33.93
2018-03-28T08:05:43.667Z,32.07
2018-03-28T08:08:09.751Z,29.90
2018-03-28T08:10:35.766Z,33.67
2018-03-28T08:13:01.802Z,32.60
2018-03-28T08:15:27.838Z,31.50
2018-03-28T08:17:53.846Z,33.00
2018-03-28T08:20:19.900Z,32.77
2018-03-28T08:22:45.962Z,34.67
2018-03-28T08:25:27.814Z,34.80
2018-03-28T08:27:53.914Z,32.80
2018-03-28T08:30:20.053Z,35.97
2018-03-28T08:32:46.243Z,33.17
2018-03-28T08:35:13.017Z,36.07
2018-03-28T08:37:39.046Z,36.77
2018-03-28T08:40:05.058Z,36.07
2018-03-28T08:42:31.094Z,33.50
2018-03-28T08:44:57.155Z,35.67
2018-03-28T08:47:23.224Z,35.20
2018-03-28T08:49:49.243Z,34.10
2018-03-28T08:52:15.324Z,35.83
2018-03-28T08:54:41.823Z,32.90
2018-03-28T08:57:07.830Z,31.10
2018-03-28T08:59:33.858Z,32.50
2018-03-28T09:01:59.906Z,32.07
2018-03-28T09:04:25.940Z,31.80
2018-03-28T09:06:51.942Z,34.70
2018-03-28T09:09:17.963Z,31.53
2018-03-28T09:11:44.631Z,33.30
2018-03-28T09:14:10.734Z,32.47
2018-03-28T09:16:36.766Z,32.07
2018-03-28T09:19:02.830Z,33.03
2018-03-28T09:21:29.032Z,30.40
2018-03-28T09:23:55.066Z,30.87
2018-03-28T09:26:21.100Z,31.70
2018-03-28T09:28:47.118Z,30.20
2018-03-28T09:31:13.314Z,30.43
2018-03-28T09:33:39.330Z,29.93
2018-03-28T09:36:05.375Z,29.20
2018-03-28T09:38:31.457Z,27.07
2018-03-28T09:40:57.458Z,26.80
2018-03-28T09:43:23.486Z,25.20
2018-03-28T09:45:49.546Z,25.70
2018-03-28T09:48:15.638Z,25.03
2018-03-28T09:50:42.438Z,23.10
2018-03-28T09:53:08.449Z,21.83
2018-03-28T09:55:34.469Z,23.77
2018-03-28T09:58:00.494Z,25.50
2018-03-28T10:00:27.078Z,25.17
2018-03-28T10:02:59.618Z,25.53
2018-03-28T10:05:31.618Z,26.33
2018-03-28T10:07:57.630Z,28.13
2018-03-28T10:10:23.688Z,26.13
2018-03-28T10:12:49.712Z,25.23
2018-03-28T10:15:15.787Z,26.93
2018-03-28T10:17:41.850Z,25.73
2018-03-28T10:20:08.594Z,23.07
2018-03-28T10:22:34.618Z,17.83
2018-03-28T10:25:00.652Z,17.97
2018-03-28T10:27:26.726Z,17.47
2018-03-28T10:29:52.823Z,17.63
2018-03-28T10:32:18.871Z,17.87
2018-03-28T10:34:44.890Z,16.13
2018-03-28T10:37:10.912Z,16.17
2018-03-28T10:39:36.942Z,17.47
2018-03-28T10:42:02.966Z,15.50
2018-03-28T10:44:29.014Z,15.43
2018-03-28T10:46:55.014Z,15.37
2018-03-28T10:49:21.102Z,14.87
2018-03-28T10:51:47.208Z,13.43
2018-03-28T10:54:13.958Z,14.23
2018-03-28T10:56:39.982Z,13.07
2018-03-28T10:59:05.993Z,13.03
2018-03-28T11:01:32.049Z,13.17
2018-03-28T11:03:58.719Z,13.87
2018-03-28T11:06:24.807Z,12.87
2018-03-28T11:08:50.842Z,13.10
2018-03-28T11:11:16.841Z,15.30
2018-03-28T11:13:43.608Z,13.83
2018-03-28T11:16:09.658Z,15.20
2018-03-28T11:18:35.646Z,15.00
2018-03-28T11:21:02.098Z,14.57
2018-03-28T11:23:28.135Z,15.23
2018-03-28T11:25:54.160Z,16.87
2018-03-28T11:28:20.595Z,16.03
2018-03-28T11:30:46.625Z,16.10
2018-03-28T11:33:12.735Z,15.80
2018-03-28T11:35:38.790Z,14.60
2018-03-28T11:38:04.870Z,15.57
2018-03-28T11:40:30.930Z,16.90
2018-03-28T11:42:56.946Z,14.80
2018-03-28T11:45:22.961Z,14.93
2018-03-28T11:47:48.986Z,15.83
2018-03-28T11:50:15.098Z,15.00
2018-03-28T11:52:41.214Z,17.10
2018-03-28T11:55:07.219Z,14.53
2018-03-28T11:57:33.582Z,13.77
2018-03-28T11:59:59.929Z,14.33
2018-03-28T12:02:25.964Z,13.17
2018-03-28T12:04:52.015Z,14.40
2018-03-28T12:07:18.062Z,14.07
2018-03-28T12:09:44.061Z,12.57
2018-03-28T12:12:10.190Z,11.80
2018-03-28T12:14:36.222Z,11.93
2018-03-28T12:17:02.298Z,10.47
2018-03-28T12:19:28.318Z,9.60
2018-03-28T12:21:54.514Z,8.13
2018-03-28T12:24:20.527Z,11.00
2018-03-28T12:26:46.562Z,8.57
2018-03-28T12:29:12.662Z,7.00
2018-03-28T12:31:39.446Z,6.23
2018-03-28T12:34:05.455Z,6.43
2018-03-28T12:36:31.467Z,5.80
2018-03-28T12:38:57.498Z,5.77
2018-03-28T12:41:24.272Z,5.53
2018-03-28T12:43:50.593Z,6.10
2018-03-28T12:46:16.623Z,5.03
2018-03-28T12:48:42.658Z,4.83
2018-03-28T12:51:08.681Z,4.73
2018-03-28T12:53:34.715Z,4.83
2018-03-28T12:56:00.766Z,5.50
2018-03-28T12:58:27.586Z,4.60
2018-03-28T13:00:53.659Z,4.23
2018-03-28T13:03:19.658Z,4.50
2018-03-28T13:05:46.403Z,3.70
2018-03-28T13:08:12.632Z,3.97
2018-03-28T13:10:38.654Z,4.50
2018-03-28T13:13:04.755Z,4.60
2018-03-28T13:15:31.640Z,4.57
2018-03-28T13:17:57.654Z,4.07
2018-03-28T13:20:23.720Z,4.10
2018-03-28T13:22:49.759Z,4.33
2018-03-28T13:25:16.054Z,4.13
2018-03-28T13:27:42.058Z,4.10
2018-03-28T13:30:08.066Z,4.60
2018-03-28T13:32:34.148Z,4.87
2018-03-28T13:35:00.350Z,4.90
2018-03-28T13:37:26.348Z,4.97
2018-03-28T13:39:52.426Z,5.57
2018-03-28T13:42:18.835Z,4.90
2018-03-28T13:44:44.930Z,5.27
2018-03-28T13:47:10.937Z,5.13
2018-03-28T13:49:37.030Z,4.53
2018-03-28T13:52:03.062Z,4.40
2018-03-28T13:54:29.114Z,5.27
2018-03-28T13:56:55.556Z,5.07
2018-03-28T13:59:21.642Z,5.40
2018-03-28T14:01:47.666Z,4.90
2018-03-28T14:04:13.791Z,5.17
2018-03-28T14:06:39.817Z,5.83
2018-03-28T14:09:05.878Z,5.47
2018-03-28T14:11:31.919Z,5.63
2018-03-28T14:13:57.934Z,5.30
2018-03-28T14:16:23.961Z,5.50
2018-03-28T14:18:49.986Z,5.83
2018-03-28T14:21:16.010Z,5.63
2018-03-28T14:23:42.104Z,5.43
2018-03-28T14:26:08.886Z,5.80
2018-03-28T14:28:34.924Z,6.93
2018-03-28T14:31:01.122Z,6.00
2018-03-28T14:33:27.195Z,6.93
2018-03-28T14:35:53.283Z,7.37
2018-03-28T14:38:19.436Z,6.80
2018-03-28T14:40:45.447Z,6.87
2018-03-28T14:43:11.519Z,7.90
2018-03-28T14:45:37.589Z,6.67
2018-03-28T14:48:03.611Z,6.73
2018-03-28T14:50:29.619Z,7.50
2018-03-28T14:52:56.362Z,7.10
2018-03-28T14:55:22.819Z,8.10
2018-03-28T14:57:48.855Z,8.03
2018-03-28T15:00:14.897Z,8.60
2018-03-28T15:02:40.912Z,7.80
2018-03-28T15:05:06.940Z,10.33
2018-03-28T15:07:33.001Z,9.77
2018-03-28T15:09:59.011Z,8.83
2018-03-28T15:12:25.062Z,9.77
